Wayside, Texas
Current Conditions -  °F | °C
As of 4:53 AM on Tuesday 21 Oct 2014 (Local Time) from KAMA Reporting Station
Few Clouds Few Clouds  
Wind Chill: 53°   Ceiling: Unl
Heat Index: 53°   Visibility: 10mi
Dew Point: 50°   Wind: 7mph
Humidity: 89%   Direction: 210°SSW
Pressure: 30.11"   Gusts: NA
Location:  34.79°N, 101.55°W
Report Text: KAMA 210953Z AUTO 21006KT 10SM FEW060 12/10 A3011 RMK AO2 SLP159 T01170100
Loading
Personal Weather Stations






























Interactive Weather Map
Tropical Storm Tracking
New forecast layout! Learn more

10-Day Weather Forecast

Advertisements
Track Severe Weather on mobile